createdAt,value
2022-12-12T00:02:07.971Z,5.11
2022-12-12T00:04:37.104Z,5.14
2022-12-12T00:07:07.919Z,4.55
2022-12-12T00:09:37.128Z,5.09
2022-12-12T00:12:05.596Z,4.50
2022-12-12T00:14:34.370Z,4.83
2022-12-12T00:17:02.980Z,4.53
2022-12-12T00:19:31.553Z,4.83
2022-12-12T00:22:00.662Z,4.86
2022-12-12T00:24:35.165Z,4.12
2022-12-12T00:27:04.661Z,4.63
2022-12-12T00:29:33.353Z,4.86
2022-12-12T00:32:02.183Z,4.81
2022-12-12T00:34:33.037Z,4.91
2022-12-12T00:37:02.785Z,4.75
2022-12-12T00:39:33.122Z,4.67
2022-12-12T00:42:01.910Z,5.03
2022-12-12T00:44:32.002Z,4.93
2022-12-12T00:47:04.275Z,4.62
2022-12-12T00:49:33.353Z,4.98
2022-12-12T00:52:02.701Z,5.32
2022-12-12T00:54:33.272Z,5.11
2022-12-12T00:57:02.427Z,5.22
2022-12-12T00:59:33.401Z,4.72
2022-12-12T01:02:02.517Z,5.15
2022-12-12T01:04:31.229Z,4.59
2022-12-12T01:07:00.415Z,4.53
2022-12-12T01:09:30.371Z,4.72
2022-12-12T01:12:01.629Z,4.74
2022-12-12T01:14:31.074Z,4.78
2022-12-12T01:17:00.632Z,4.95
2022-12-12T01:19:30.202Z,5.01
2022-12-12T01:21:59.659Z,5.04
2022-12-12T01:24:28.288Z,4.94
2022-12-12T01:26:59.060Z,5.13
2022-12-12T01:29:29.305Z,4.58
2022-12-12T01:31:58.734Z,4.84
2022-12-12T01:34:29.835Z,5.07
2022-12-12T01:36:58.482Z,5.23
2022-12-12T01:39:27.793Z,5.15
2022-12-12T01:41:57.983Z,5.27
2022-12-12T01:44:49.429Z,5.07
2022-12-12T01:47:23.215Z,5.05
2022-12-12T01:49:58.578Z,5.25
2022-12-12T01:52:32.078Z,5.20
2022-12-12T01:55:05.963Z,4.98
2022-12-12T01:57:44.721Z,4.48
2022-12-12T02:00:30.381Z,4.27
2022-12-12T02:02:59.874Z,4.35
2022-12-12T02:05:35.301Z,4.59
2022-12-12T02:08:08.432Z,4.79
2022-12-12T02:10:38.750Z,4.74
2022-12-12T02:13:12.008Z,4.64
2022-12-12T02:15:52.907Z,4.61
2022-12-12T02:18:30.088Z,4.15
2022-12-12T02:21:12.181Z,4.40
2022-12-12T02:24:49.273Z,4.42
2022-12-12T02:28:21.673Z,4.42
2022-12-12T02:31:14.480Z,4.39
2022-12-12T02:33:56.702Z,4.42
2022-12-12T02:36:38.568Z,4.52
2022-12-12T02:39:15.777Z,4.73
2022-12-12T02:41:54.363Z,4.53
2022-12-12T02:44:32.807Z,4.66
2022-12-12T02:47:11.532Z,4.77
2022-12-12T02:49:47.976Z,5.06
2022-12-12T02:52:18.265Z,5.12
2022-12-12T02:54:48.882Z,5.01
2022-12-12T02:57:21.148Z,4.61
2022-12-12T02:59:59.268Z,4.74
2022-12-12T03:03:44.993Z,4.55
2022-12-12T03:07:02.122Z,5.03
2022-12-12T03:09:49.149Z,5.12
2022-12-12T03:12:29.657Z,5.14
2022-12-12T03:15:07.553Z,5.00
2022-12-12T03:17:47.804Z,4.87
2022-12-12T03:20:26.150Z,4.65
2022-12-12T03:23:02.713Z,4.84
2022-12-12T03:25:38.800Z,4.00
2022-12-12T03:28:14.386Z,4.55
2022-12-12T03:30:49.467Z,4.61
2022-12-12T03:33:29.414Z,4.51
2022-12-12T03:36:10.292Z,4.68
2022-12-12T03:38:47.474Z,4.41
2022-12-12T03:41:21.187Z,4.63
2022-12-12T03:43:58.412Z,4.26
2022-12-12T03:46:34.092Z,4.24
2022-12-12T03:49:12.443Z,4.38
2022-12-12T03:51:54.042Z,4.23
2022-12-12T03:54:28.438Z,4.48
2022-12-12T03:57:02.456Z,4.45
2022-12-12T03:59:36.153Z,4.34
2022-12-12T04:02:20.103Z,4.58
2022-12-12T04:05:02.168Z,4.62
2022-12-12T04:07:36.585Z,4.74
2022-12-12T04:10:24.598Z,4.57
2022-12-12T04:13:07.549Z,3.91
2022-12-12T04:15:59.695Z,4.63
2022-12-12T04:18:42.604Z,3.60
2022-12-12T04:24:37.262Z,4.52
2022-12-12T04:27:11.423Z,4.53
2022-12-12T04:29:50.572Z,4.07
2022-12-12T04:32:25.754Z,3.85
2022-12-12T04:34:56.868Z,3.89
2022-12-12T04:37:31.196Z,4.04
2022-12-12T04:40:06.964Z,4.24
2022-12-12T04:42:48.529Z,4.44
2022-12-12T04:45:21.489Z,4.20
2022-12-12T04:47:54.121Z,4.38
2022-12-12T04:50:29.201Z,4.46
2022-12-12T04:53:02.379Z,4.72
2022-12-12T04:55:38.129Z,4.53
2022-12-12T04:58:07.994Z,4.07
2022-12-12T05:00:48.013Z,4.41
2022-12-12T05:03:26.853Z,4.37
2022-12-12T05:06:02.419Z,4.29
2022-12-12T05:08:35.580Z,4.43
2022-12-12T05:11:08.231Z,4.38
2022-12-12T05:13:40.334Z,4.38
2022-12-12T05:16:20.570Z,4.34
2022-12-12T05:18:51.551Z,4.32
2022-12-12T05:21:20.586Z,4.08
2022-12-12T05:23:49.098Z,4.17
2022-12-12T05:26:27.991Z,3.92
2022-12-12T05:29:01.125Z,4.37
2022-12-12T05:31:34.199Z,4.11
2022-12-12T05:34:03.016Z,4.45
2022-12-12T05:36:32.900Z,4.24
2022-12-12T05:39:01.633Z,4.17
2022-12-12T05:41:32.270Z,4.11
2022-12-12T05:44:01.241Z,4.14
2022-12-12T05:46:30.896Z,4.43
2022-12-12T05:49:03.717Z,4.38
2022-12-12T05:51:33.043Z,4.11
2022-12-12T05:54:02.010Z,3.90
2022-12-12T05:56:33.251Z,3.67
2022-12-12T05:59:03.279Z,3.91
2022-12-12T06:01:32.346Z,3.86
2022-12-12T06:04:03.499Z,4.22
2022-12-12T06:06:32.172Z,4.01
2022-12-12T06:09:01.790Z,3.45
2022-12-12T06:11:32.330Z,3.82
2022-12-12T06:14:01.762Z,3.97
2022-12-12T06:16:30.406Z,3.85
2022-12-12T06:18:59.518Z,3.40
2022-12-12T06:21:28.513Z,3.75
2022-12-12T06:23:58.434Z,3.93
2022-12-12T06:26:28.612Z,3.98
2022-12-12T06:29:00.605Z,3.14
2022-12-12T06:31:29.398Z,3.39
2022-12-12T06:33:59.236Z,3.84
2022-12-12T06:36:28.462Z,2.93
2022-12-12T06:39:03.314Z,3.25
2022-12-12T06:41:34.881Z,2.97
2022-12-12T06:44:05.316Z,3.45
2022-12-12T06:46:34.141Z,3.51
2022-12-12T06:49:07.060Z,3.38
2022-12-12T06:51:48.884Z,3.55
2022-12-12T06:54:20.009Z,3.52
2022-12-12T06:56:53.883Z,3.55
2022-12-12T06:59:24.792Z,3.21
2022-12-12T07:01:56.442Z,3.20
2022-12-12T07:04:27.431Z,2.87
2022-12-12T07:06:58.558Z,3.29
2022-12-12T07:09:30.747Z,3.08
2022-12-12T07:11:59.771Z,3.14
2022-12-12T07:14:30.732Z,3.09
2022-12-12T07:17:00.821Z,3.15
2022-12-12T07:19:37.239Z,3.13
2022-12-12T07:22:10.490Z,3.13
2022-12-12T07:24:39.990Z,2.93
2022-12-12T07:27:09.487Z,2.89
2022-12-12T07:29:40.935Z,2.72
2022-12-12T07:32:09.906Z,2.57
2022-12-12T07:34:38.972Z,2.73
2022-12-12T07:37:08.986Z,2.73
2022-12-12T07:39:39.148Z,2.72
2022-12-12T07:42:09.639Z,2.70
2022-12-12T07:44:40.994Z,2.70
2022-12-12T07:47:11.513Z,2.66
2022-12-12T07:49:40.428Z,2.68
2022-12-12T07:52:09.223Z,2.64
2022-12-12T07:54:39.035Z,2.61
2022-12-12T07:57:08.883Z,2.57
2022-12-12T07:59:37.931Z,2.55
2022-12-12T08:02:11.722Z,2.50
2022-12-12T08:04:40.407Z,2.50
2022-12-12T08:09:52.918Z,2.32
2022-12-12T08:12:21.944Z,2.11
2022-12-12T08:14:52.249Z,2.10
2022-12-12T08:17:25.109Z,2.22
2022-12-12T08:19:55.577Z,2.10
2022-12-12T08:22:24.541Z,2.24
2022-12-12T08:24:55.033Z,2.27
2022-12-12T08:27:23.877Z,2.23
2022-12-12T08:29:59.488Z,1.97
2022-12-12T08:32:30.240Z,1.63
2022-12-12T08:34:59.380Z,1.87
2022-12-12T08:37:28.420Z,1.79
2022-12-12T08:39:58.030Z,1.97
2022-12-12T08:42:26.509Z,2.05
2022-12-12T08:44:55.804Z,2.38
2022-12-12T08:47:25.000Z,2.27
2022-12-12T08:49:56.083Z,2.27
2022-12-12T08:52:24.875Z,2.19
2022-12-12T08:54:54.228Z,2.13
2022-12-12T08:57:26.016Z,2.66
2022-12-12T08:59:54.973Z,2.05
2022-12-12T09:02:26.622Z,2.23
2022-12-12T09:04:57.163Z,2.44
2022-12-12T09:07:28.300Z,2.65
2022-12-12T09:09:56.821Z,2.56
2022-12-12T09:12:26.699Z,2.40
2022-12-12T09:14:56.007Z,2.67
2022-12-12T09:17:25.372Z,2.62
2022-12-12T09:19:57.963Z,2.66
2022-12-12T09:22:28.233Z,2.97
2022-12-12T09:27:41.596Z,3.19
2022-12-12T09:30:12.342Z,3.04
2022-12-12T09:32:42.043Z,3.39
2022-12-12T09:35:13.763Z,3.26
2022-12-12T09:37:43.515Z,3.49
2022-12-12T09:40:21.277Z,3.08
2022-12-12T09:42:52.703Z,3.76
2022-12-12T09:45:22.593Z,4.09
2022-12-12T09:47:56.842Z,3.92
2022-12-12T09:50:32.564Z,3.68
2022-12-12T09:53:06.646Z,4.03
2022-12-12T09:55:41.862Z,4.20
2022-12-12T09:58:21.927Z,4.63
2022-12-12T10:01:01.044Z,4.51
2022-12-12T10:03:51.940Z,4.74
2022-12-12T10:06:39.131Z,5.06
2022-12-12T10:09:34.021Z,4.96
2022-12-12T10:12:09.196Z,5.17
2022-12-12T10:14:44.095Z,4.89
2022-12-12T10:17:20.116Z,4.31
2022-12-12T10:19:53.779Z,5.12
2022-12-12T10:22:39.040Z,4.82
2022-12-12T10:25:26.006Z,4.75
2022-12-12T10:27:57.627Z,4.80
2022-12-12T10:30:26.418Z,4.99
2022-12-12T10:33:21.578Z,4.69
2022-12-12T10:36:00.608Z,4.92
2022-12-12T10:41:45.735Z,5.02
2022-12-12T10:44:47.033Z,5.15
2022-12-12T10:47:22.287Z,5.14
2022-12-12T10:49:52.679Z,5.25
2022-12-12T10:52:24.238Z,5.17
2022-12-12T10:54:59.613Z,4.95
2022-12-12T10:57:39.775Z,5.39
2022-12-12T11:00:28.160Z,5.63
2022-12-12T11:03:00.497Z,5.50
2022-12-12T11:05:35.784Z,5.76
2022-12-12T11:11:18.652Z,5.73
2022-12-12T11:13:55.253Z,6.19
2022-12-12T11:16:28.716Z,5.93
2022-12-12T11:19:06.687Z,6.49
2022-12-12T11:21:39.608Z,6.63
2022-12-12T11:24:30.689Z,6.31
2022-12-12T11:27:02.641Z,6.96
2022-12-12T11:29:45.200Z,7.16
2022-12-12T11:32:16.095Z,6.09
2022-12-12T11:34:50.960Z,6.83
2022-12-12T11:37:22.095Z,6.43
2022-12-12T11:39:55.266Z,6.77
2022-12-12T11:42:29.738Z,6.68
2022-12-12T11:45:21.614Z,6.83
2022-12-12T11:47:55.629Z,6.72
2022-12-12T11:50:27.800Z,6.30
2022-12-12T11:52:59.218Z,7.02
2022-12-12T11:55:39.542Z,7.32
2022-12-12T11:58:19.093Z,6.23
2022-12-12T12:01:01.941Z,6.47
2022-12-12T12:04:08.576Z,6.35
2022-12-12T12:06:46.720Z,6.80
2022-12-12T12:09:28.620Z,6.65
2022-12-12T12:12:08.495Z,6.89
2022-12-12T12:15:06.236Z,6.48
2022-12-12T12:17:57.909Z,6.47
2022-12-12T12:20:40.162Z,6.22
2022-12-12T12:23:24.017Z,6.20
2022-12-12T12:26:03.758Z,6.08
2022-12-12T12:29:17.798Z,5.67
2022-12-12T12:31:58.265Z,6.00
2022-12-12T12:34:48.848Z,6.44
2022-12-12T12:37:35.237Z,6.23
2022-12-12T12:40:38.455Z,5.80
2022-12-12T12:43:37.362Z,5.93
2022-12-12T12:46:16.376Z,5.95
2022-12-12T12:48:54.020Z,6.37
2022-12-12T12:51:30.441Z,6.12
2022-12-12T12:54:05.523Z,5.77
2022-12-12T12:56:43.407Z,5.86
2022-12-12T12:59:19.962Z,5.58
2022-12-12T13:01:52.295Z,5.50
2022-12-12T13:04:27.185Z,5.58
2022-12-12T13:07:05.020Z,5.33
2022-12-12T13:09:43.051Z,5.73
2022-12-12T13:12:21.469Z,5.68
2022-12-12T13:14:59.855Z,6.00
2022-12-12T13:17:44.728Z,5.48
2022-12-12T13:20:19.473Z,5.57
2022-12-12T13:23:22.463Z,5.94
2022-12-12T13:26:00.844Z,5.03
2022-12-12T13:28:37.422Z,5.62
2022-12-12T13:31:40.127Z,5.43
2022-12-12T13:34:14.891Z,5.43
2022-12-12T13:36:49.265Z,5.53
2022-12-12T13:39:31.204Z,5.49
2022-12-12T13:42:03.538Z,5.45
2022-12-12T13:44:41.882Z,5.22
2022-12-12T13:47:55.389Z,5.61
2022-12-12T13:50:26.318Z,5.64
2022-12-12T13:53:21.979Z,5.68
2022-12-12T13:56:35.650Z,5.72
2022-12-12T13:59:07.630Z,5.03
2022-12-12T14:01:41.219Z,5.12
2022-12-12T14:04:28.782Z,5.23
2022-12-12T14:07:05.640Z,5.03
2022-12-12T14:09:48.963Z,4.62
2022-12-12T14:12:31.768Z,5.17
2022-12-12T14:15:07.367Z,5.21
2022-12-12T14:17:43.039Z,5.09
2022-12-12T14:20:32.856Z,4.93
2022-12-12T14:23:27.341Z,5.33
2022-12-12T14:26:00.315Z,5.17
2022-12-12T14:28:32.781Z,4.66
2022-12-12T14:31:15.762Z,4.40
2022-12-12T14:34:31.413Z,5.19
2022-12-12T14:37:40.843Z,4.23
2022-12-12T14:40:21.786Z,4.17
2022-12-12T14:43:19.478Z,4.76
2022-12-12T14:45:59.289Z,4.83
2022-12-12T14:48:32.803Z,5.12
2022-12-12T14:51:09.358Z,4.54
2022-12-12T14:53:49.814Z,4.66
2022-12-12T14:56:22.733Z,4.17
2022-12-12T14:59:03.003Z,4.13
2022-12-12T15:01:37.495Z,4.18
2022-12-12T15:04:09.899Z,3.94
2022-12-12T15:06:41.123Z,4.11
2022-12-12T15:09:31.510Z,4.26
2022-12-12T15:12:15.369Z,4.19
2022-12-12T15:14:58.094Z,4.40
2022-12-12T15:17:34.388Z,4.43
2022-12-12T15:20:10.208Z,4.33
2022-12-12T15:22:52.513Z,4.36
2022-12-12T15:25:25.978Z,4.20
2022-12-12T15:27:57.532Z,4.11
2022-12-12T15:30:36.978Z,3.89
2022-12-12T15:33:09.641Z,4.10
2022-12-12T15:35:38.432Z,3.97
2022-12-12T15:38:17.777Z,3.95
2022-12-12T15:40:52.590Z,3.98
2022-12-12T15:43:26.355Z,3.93
2022-12-12T15:45:57.544Z,3.86
2022-12-12T15:48:28.619Z,3.83
2022-12-12T15:51:02.009Z,3.72
2022-12-12T15:53:39.186Z,3.59
2022-12-12T15:56:11.565Z,3.57
2022-12-12T15:58:43.293Z,3.56
2022-12-12T16:01:22.556Z,3.41
2022-12-12T16:04:00.741Z,3.39
2022-12-12T16:06:33.424Z,3.09
2022-12-12T16:09:09.056Z,3.20
2022-12-12T16:11:47.220Z,3.17
2022-12-12T16:14:39.697Z,3.18
2022-12-12T16:17:13.752Z,3.05
2022-12-12T16:20:03.254Z,3.05
2022-12-12T16:22:39.914Z,3.02
2022-12-12T16:25:19.834Z,2.89
2022-12-12T16:27:54.442Z,2.91
2022-12-12T16:30:26.347Z,2.89
2022-12-12T16:32:57.236Z,2.80
2022-12-12T16:35:29.751Z,2.80
2022-12-12T16:37:58.401Z,2.76
2022-12-12T16:40:28.361Z,2.68
2022-12-12T16:43:11.265Z,2.65
2022-12-12T16:45:45.883Z,2.60
2022-12-12T16:48:20.927Z,2.52
2022-12-12T16:50:54.484Z,2.50
2022-12-12T16:53:23.672Z,2.45
2022-12-12T16:55:55.984Z,2.38
2022-12-12T16:58:26.898Z,2.38
2022-12-12T17:00:58.765Z,2.30
2022-12-12T17:03:27.929Z,2.29
2022-12-12T17:06:00.528Z,2.27
2022-12-12T17:08:35.348Z,2.22
2022-12-12T17:11:13.036Z,2.18
2022-12-12T17:13:49.715Z,2.15
2022-12-12T17:16:27.385Z,2.10
2022-12-12T17:21:51.197Z,2.04
2022-12-12T17:24:20.802Z,1.99
2022-12-12T17:26:50.612Z,1.97
2022-12-12T17:29:22.479Z,1.94
2022-12-12T17:31:53.630Z,1.92
2022-12-12T17:34:22.328Z,1.88
2022-12-12T17:36:57.465Z,1.81
2022-12-12T17:39:26.827Z,1.83
2022-12-12T17:41:56.057Z,1.78
2022-12-12T17:44:27.166Z,1.75
2022-12-12T17:46:56.503Z,1.74
2022-12-12T17:49:27.447Z,1.72
2022-12-12T17:52:42.926Z,1.60
2022-12-12T17:55:53.975Z,1.69
2022-12-12T17:58:06.586Z,1.68
2022-12-12T18:00:36.657Z,1.68
2022-12-12T18:03:08.318Z,1.73
2022-12-12T18:05:38.013Z,1.72
2022-12-12T18:08:09.242Z,1.60
2022-12-12T18:10:39.158Z,1.70
2022-12-12T18:13:07.648Z,1.61
2022-12-12T18:15:37.418Z,1.68
2022-12-12T18:18:06.698Z,1.68
2022-12-12T18:20:36.633Z,1.63
2022-12-12T18:23:10.018Z,1.62
2022-12-12T18:25:39.309Z,1.63
2022-12-12T18:28:10.655Z,1.57
2022-12-12T18:30:41.082Z,1.52
2022-12-12T18:36:05.798Z,1.45
2022-12-12T18:38:40.688Z,1.47
2022-12-12T18:41:15.904Z,1.41
2022-12-12T18:43:46.307Z,1.38
2022-12-12T18:46:17.414Z,1.36
2022-12-12T18:48:50.245Z,1.35
2022-12-12T18:51:22.480Z,1.27
2022-12-12T18:53:54.291Z,1.22
2022-12-12T18:56:26.943Z,1.17
2022-12-12T18:58:56.894Z,1.17
2022-12-12T19:01:28.482Z,1.14
2022-12-12T19:03:59.857Z,1.11
2022-12-12T19:06:34.799Z,1.08
2022-12-12T19:09:08.167Z,1.05
2022-12-12T19:11:38.932Z,1.02
2022-12-12T19:14:10.755Z,0.95
2022-12-12T19:16:39.354Z,0.99
2022-12-12T19:19:10.107Z,1.00
2022-12-12T19:21:39.497Z,0.93
2022-12-12T19:24:12.438Z,0.96
2022-12-12T19:26:46.603Z,0.98
2022-12-12T19:29:18.796Z,0.98
2022-12-12T19:31:52.665Z,0.93
2022-12-12T19:34:27.283Z,0.95
2022-12-12T19:36:56.172Z,0.92
2022-12-12T19:45:09.820Z,0.92
2022-12-12T19:47:41.438Z,0.91
2022-12-12T19:50:11.286Z,0.91
2022-12-12T19:52:41.005Z,0.80
2022-12-12T19:55:11.546Z,0.84
2022-12-12T19:57:42.173Z,0.82
2022-12-12T20:00:13.028Z,0.79
2022-12-12T20:02:41.842Z,0.74
2022-12-12T20:05:17.278Z,0.69
2022-12-12T20:07:45.711Z,0.69
2022-12-12T20:10:16.501Z,0.62
2022-12-12T20:12:56.092Z,0.61
2022-12-12T20:15:27.360Z,0.62
2022-12-12T20:18:00.944Z,0.63
2022-12-12T20:20:30.572Z,0.62
2022-12-12T20:22:59.544Z,0.50
2022-12-12T20:25:29.672Z,0.55
2022-12-12T20:28:04.915Z,0.51
2022-12-12T20:30:35.834Z,0.55
2022-12-12T20:33:04.857Z,0.51
2022-12-12T20:35:36.880Z,0.47
2022-12-12T20:38:06.582Z,0.43
2022-12-12T20:40:41.720Z,0.51
2022-12-12T20:43:12.518Z,0.47
2022-12-12T20:45:41.742Z,0.49
2022-12-12T20:48:12.829Z,0.47
2022-12-12T20:50:41.920Z,0.46
2022-12-12T20:53:12.708Z,0.42
2022-12-12T20:55:42.895Z,0.45
2022-12-12T20:58:13.011Z,0.43
2022-12-12T21:00:42.293Z,0.37
2022-12-12T21:03:17.978Z,0.36
2022-12-12T21:05:46.601Z,0.35
2022-12-12T21:08:17.632Z,0.33
2022-12-12T21:10:48.353Z,0.33
2022-12-12T21:13:20.766Z,0.28
2022-12-12T21:15:49.960Z,0.21
2022-12-12T21:18:19.326Z,0.27
2022-12-12T21:20:51.397Z,0.15
2022-12-12T21:23:24.992Z,0.14
2022-12-12T21:25:55.520Z,0.21
2022-12-12T21:28:24.985Z,0.20
2022-12-12T21:30:53.742Z,0.12
2022-12-12T21:33:22.348Z,0.11
2022-12-12T21:35:51.316Z,0.11
2022-12-12T21:38:26.307Z,0.01
2022-12-12T21:40:56.636Z,0.06
2022-12-12T21:43:25.687Z,-0.04
2022-12-12T21:45:55.753Z,0.05
2022-12-12T21:48:24.678Z,0.00
2022-12-12T21:50:55.237Z,-0.07
2022-12-12T21:53:36.139Z,0.01
2022-12-12T21:56:15.291Z,-0.04
2022-12-12T21:58:46.882Z,-0.01
2022-12-12T22:01:18.951Z,-0.02
2022-12-12T22:03:49.747Z,-0.12
2022-12-12T22:06:21.010Z,-0.09
2022-12-12T22:08:50.300Z,-0.09
2022-12-12T22:11:40.413Z,-0.10
2022-12-12T22:14:13.856Z,-0.14
2022-12-12T22:16:42.606Z,-0.09
2022-12-12T22:19:14.393Z,-0.12
2022-12-12T22:21:46.452Z,-0.13
2022-12-12T22:24:15.700Z,-0.13
2022-12-12T22:26:48.780Z,-0.13
2022-12-12T22:29:22.083Z,-0.12
2022-12-12T22:31:52.573Z,-0.19
2022-12-12T22:34:28.067Z,-0.16
2022-12-12T22:36:57.248Z,-0.14
2022-12-12T22:39:28.165Z,-0.13
2022-12-12T22:42:00.076Z,-0.16
2022-12-12T22:44:29.715Z,-0.19
2022-12-12T22:46:58.658Z,-0.18
2022-12-12T22:49:29.733Z,-0.21
2022-12-12T22:51:59.168Z,-0.24
2022-12-12T22:54:29.491Z,-0.21
2022-12-12T22:57:00.098Z,-0.31
2022-12-12T22:59:29.690Z,-0.31
2022-12-12T23:01:58.958Z,-0.30
2022-12-12T23:04:27.764Z,-0.32
2022-12-12T23:06:56.426Z,-0.35
2022-12-12T23:09:26.367Z,-0.34
2022-12-12T23:11:55.826Z,-0.35
2022-12-12T23:14:27.483Z,-0.38
2022-12-12T23:16:58.519Z,-0.39
2022-12-12T23:19:30.336Z,-0.37
2022-12-12T23:22:00.800Z,-0.40
2022-12-12T23:24:29.380Z,-0.41
2022-12-12T23:26:58.504Z,-0.45
2022-12-12T23:29:29.987Z,-0.44
2022-12-12T23:32:02.991Z,-0.48
2022-12-12T23:34:34.745Z,-0.46
2022-12-12T23:37:03.215Z,-0.46
2022-12-12T23:39:31.660Z,-0.57
2022-12-12T23:42:01.141Z,-0.49
2022-12-12T23:44:31.938Z,-0.49
2022-12-12T23:47:01.760Z,-0.51
2022-12-12T23:49:30.396Z,-0.57
2022-12-12T23:52:03.367Z,-0.60
2022-12-12T23:54:35.691Z,-0.62
2022-12-12T23:57:04.902Z,-0.63
2022-12-12T23:59:36.338Z,-0.66
